Clear Sky Current Weather (METAR) For London Heathrow Airport

All times on the weather descriptions are local

Observed at 14:50 - (17 mins ago)

Clear Sky

16°C

Clear Sky
Clouds:
Wind: 290° at 10 knots
Visibility: Greater than 10km
QNH: 1018
Dew Point: 6°C
Runway in Use: Landing: Runway , Take-Off: Runway

Sunrise Today: 05:58
Sunset Today: 20:03

Forecast Weather (TAF) For London Heathrow Airport

Issued at 01:00 - (13 days ago)


Runway in Use: Likely Runways 27L/R

Forecast valid until 01:00 on Wednesday

METAR/TAF RAW METAR / TAF

EGLL 171350Z 29010KT CAVOK 16/06 Q1018

Weather Widget

Put weather from any of our airports on your website with our weather widget.

Find Another Search

Airport Search


Please Wait Please Wait - Loading
Close
Close

Login

Username:

Password:

Remember Me:

Remember me on this computer

Forgotten your password? Get a reset password sent to your registered e-mail address

Close

User Private Message

Subject:

Message: